Time;durP1;ratioP1;P1;durP2;ratioP2;P2;SDS_P1;SDS_P2;PMS_P1;PMS_P2;Temp;Humidity;BMP_temperature;BMP_pressure;BME280_temperature;BME280_humidity;BME280_pressure;Samples;Min_cycle;Max_cycle;Signal;HPM_P1;HPM_P2
2022/04/01 00:00:15;;;;;;;15.05;13.45;;;;;;;1.80;100.00;99238.63;691500;28;2067;-76
2022/04/01 00:00:38;;;;;;;15.52;13.80;;;;;;;1.84;100.00;99232.63;688029;28;1396;-76
2022/04/01 00:00:58;;;;;;;16.00;13.68;;;;;;;1.81;100.00;99242.03;688683;28;4290;-76
2022/04/01 00:01:19;;;;;;;15.67;13.70;;;;;;;1.79;100.00;99247.19;692521;28;1398;-76
2022/04/01 00:01:40;;;;;;;14.52;13.00;;;;;;;1.81;100.00;99249.78;694646;28;1422;-76
2022/04/01 00:02:01;;;;;;;14.77;13.07;;;;;;;1.87;100.00;99252.41;695213;28;1648;-75
2022/04/01 00:02:21;;;;;;;15.38;13.45;;;;;;;1.91;100.00;99256.75;692154;28;1606;-75
2022/04/01 00:02:42;;;;;;;14.97;13.17;;;;;;;1.93;100.00;99243.88;693272;28;1222;-75
2022/04/01 00:03:06;;;;;;;14.63;12.82;;;;;;;1.96;100.00;99239.56;690214;28;1643;-76
2022/04/01 00:03:26;;;;;;;14.05;12.40;;;;;;;1.96;100.00;99242.16;690386;28;1009;-76
2022/04/01 00:03:47;;;;;;;14.77;13.18;;;;;;;1.92;100.00;99242.97;688383;28;1463;-76
2022/04/01 00:04:07;;;;;;;14.90;13.30;;;;;;;1.89;100.00;99239.53;687682;28;4280;-76
2022/04/01 00:04:27;;;;;;;14.63;12.98;;;;;;;1.83;100.00;99245.50;687211;28;1208;-76
2022/04/01 00:04:48;;;;;;;15.90;13.10;;;;;;;1.81;100.00;99257.50;690449;28;1186;-75
2022/04/01 00:05:09;;;;;;;14.80;13.15;;;;;;;1.81;100.00;99257.50;688228;28;1166;-76
2022/04/01 00:05:29;;;;;;;14.47;12.83;;;;;;;1.91;100.00;99254.16;689912;28;1715;-76
2022/04/01 00:05:50;;;;;;;14.60;13.00;;;;;;;1.89;100.00;99248.13;690512;28;1640;-76
2022/04/01 00:06:12;;;;;;;14.30;12.73;;;;;;;1.87;100.00;99252.41;692830;28;1406;-76
2022/04/01 00:06:35;;;;;;;14.57;12.75;;;;;;;1.85;100.00;99252.38;691854;28;1192;-76
2022/04/01 00:06:56;;;;;;;14.90;13.30;;;;;;;1.82;100.00;99243.78;693152;28;1394;-76
2022/04/01 00:07:17;;;;;;;14.85;13.23;;;;;;;1.81;100.00;99249.78;695232;28;5010;-77
2022/04/01 00:07:41;;;;;;;15.07;13.20;;;;;;;1.77;100.00;99248.88;692090;28;1340;-76
2022/04/01 00:08:02;;;;;;;14.95;13.02;;;;;;;1.87;100.00;99252.41;692361;28;1715;-76
2022/04/01 00:08:22;;;;;;;13.80;12.30;;;;;;;1.98;100.00;99247.31;689649;28;1211;-76
2022/04/01 00:08:43;;;;;;;14.63;12.37;;;;;;;1.96;100.00;99249.03;690015;28;1600;-76
2022/04/01 00:09:03;;;;;;;14.50;12.77;;;;;;;1.91;100.00;99254.16;692775;28;1008;-75
2022/04/01 00:09:24;;;;;;;13.80;12.40;;;;;;;1.91;100.00;99240.41;693526;28;1733;-76
2022/04/01 00:09:45;;;;;;;13.90;12.13;;;;;;;1.92;100.00;99245.56;694449;28;1164;-75
2022/04/01 00:10:07;;;;;;;15.13;12.73;;;;;;;1.90;100.00;99251.56;694993;28;4259;-75
2022/04/01 00:10:27;;;;;;;14.68;12.93;;;;;;;1.86;100.00;99245.53;699066;28;1456;-75
2022/04/01 00:10:48;;;;;;;14.87;13.27;;;;;;;1.81;100.00;99248.06;691204;28;1308;-76
2022/04/01 00:11:08;;;;;;;14.40;12.90;;;;;;;1.79;100.00;99249.75;690231;28;1323;-76
2022/04/01 00:11:29;;;;;;;14.80;12.60;;;;;;;1.76;100.00;99244.59;690372;28;1208;-75
2022/04/01 00:11:51;;;;;;;14.60;12.90;;;;;;;1.77;100.00;99250.59;689417;28;1244;-76
2022/04/01 00:12:12;;;;;;;14.60;13.00;;;;;;;1.76;100.00;99249.75;690263;28;1260;-76
2022/04/01 00:12:33;;;;;;;14.50;13.00;;;;;;;1.76;100.00;99248.88;691240;28;1030;-76
2022/04/01 00:12:55;;;;;;;14.90;13.30;;;;;;;1.74;100.00;99251.44;693126;28;1345;-76
2022/04/01 00:13:15;;;;;;;15.65;13.27;;;;;;;1.74;100.00;99251.44;694390;28;4250;-76
2022/04/01 00:13:36;;;;;;;15.75;13.68;;;;;;;1.70;100.00;99248.00;697203;28;1065;-76
2022/04/01 00:13:56;;;;;;;15.67;13.43;;;;;;;1.75;100.00;99242.00;696279;28;1500;-76
2022/04/01 00:14:17;;;;;;;15.50;13.00;;;;;;;1.94;100.00;99243.88;694517;28;1211;-76
2022/04/01 00:14:38;;;;;;;15.10;12.83;;;;;;;2.06;100.00;99247.38;697183;28;947;-76
2022/04/01 00:14:58;;;;;;;15.18;13.25;;;;;;;2.10;100.00;99243.97;696840;28;1609;-76
2022/04/01 00:15:19;;;;;;;14.33;12.57;;;;;;;2.07;100.00;99249.13;698302;28;1450;-76
2022/04/01 00:15:39;;;;;;;13.98;12.52;;;;;;;2.02;100.00;99247.38;698499;28;1377;-76
2022/04/01 00:16:00;;;;;;;15.17;12.77;;;;;;;2.01;100.00;99243.06;700167;28;4342;-76
2022/04/01 00:16:20;;;;;;;14.13;12.40;;;;;;;1.97;100.00;99241.31;696964;28;1559;-76
2022/04/01 00:16:41;;;;;;;14.43;12.80;;;;;;;1.94;100.00;99246.44;697395;28;3481;-76
2022/04/01 00:17:02;;;;;;;14.63;12.95;;;;;;;1.89;100.00;99248.13;695778;28;1756;-77
2022/04/01 00:17:22;;;;;;;14.88;13.10;;;;;;;1.85;100.00;99248.94;695963;28;2072;-76
2022/04/01 00:17:44;;;;;;;14.60;12.80;;;;;;;1.93;100.00;99242.13;692964;28;1661;-75
2022/04/01 00:18:05;;;;;;;14.15;12.65;;;;;;;2.02;100.00;99242.22;692082;28;1688;-75
2022/04/01 00:18:26;;;;;;;14.38;12.77;;;;;;;2.01;100.00;99255.94;695190;28;1329;-75
2022/04/01 00:18:46;;;;;;;14.07;12.50;;;;;;;2.01;100.00;99242.22;691626;28;1148;-76
2022/04/01 00:19:06;;;;;;;14.10;12.30;;;;;;;2.02;100.00;99246.50;695376;28;4267;-76
2022/04/01 00:19:28;;;;;;;13.57;12.00;;;;;;;1.97;100.00;99250.78;692929;28;1391;-76
2022/04/01 00:19:49;;;;;;;14.07;12.57;;;;;;;1.90;100.00;99255.00;695311;28;1953;-76
2022/04/01 00:20:12;;;;;;;14.43;12.93;;;;;;;1.89;100.00;99257.59;692764;28;1441;-76
2022/04/01 00:20:32;;;;;;;14.02;12.52;;;;;;;1.92;100.00;99253.28;695940;28;1740;-75
2022/04/01 00:20:53;;;;;;;13.83;12.33;;;;;;;1.94;100.00;99258.47;691587;28;1734;-76
2022/04/01 00:21:13;;;;;;;13.82;12.30;;;;;;;2.02;100.00;99246.50;690544;28;1735;-76
2022/04/01 00:21:34;;;;;;;14.00;12.43;;;;;;;1.96;100.00;99247.31;689667;28;1844;-76
2022/04/01 00:21:55;;;;;;;13.88;11.93;;;;;;;2.05;100.00;99246.53;688952;28;1532;-76
2022/04/01 00:22:15;;;;;;;13.13;11.63;;;;;;;2.05;100.00;99246.53;688802;28;4297;-76
2022/04/01 00:22:36;;;;;;;13.40;12.00;;;;;;;2.02;100.00;99257.69;692801;28;1280;-76
2022/04/01 00:22:57;;;;;;;13.80;12.40;;;;;;;1.92;100.00;99249.88;690274;28;1385;-76
2022/04/01 00:23:17;;;;;;;14.25;12.73;;;;;;;1.88;100.00;99248.97;686025;28;2314;-76
2022/04/01 00:23:40;;;;;;;14.30;12.80;;;;;;;1.81;100.00;99252.34;689830;28;1567;-76
2022/04/01 00:24:01;;;;;;;15.00;13.40;;;;;;;1.73;100.00;99254.00;690774;28;1381;-75
2022/04/01 00:24:22;;;;;;;14.38;12.80;;;;;;;1.77;100.00;99255.75;692184;28;1434;-76
2022/04/01 00:24:42;;;;;;;14.85;13.02;;;;;;;1.74;100.00;99251.44;693503;28;1828;-76
2022/04/01 00:25:03;;;;;;;14.87;13.20;;;;;;;1.73;100.00;99259.16;692176;28;4332;-76
2022/04/01 00:25:24;;;;;;;14.88;13.27;;;;;;;1.68;100.00;99254.81;695549;28;1389;-76
2022/04/01 00:25:45;;;;;;;15.07;13.47;;;;;;;1.65;100.00;99243.66;697344;28;1315;-76
2022/04/01 00:26:06;;;;;;;14.68;13.18;;;;;;;1.65;100.00;99254.81;696840;28;1600;-76
2022/04/01 00:26:26;;;;;;;14.48;12.98;;;;;;;1.63;100.00;99248.75;694642;28;1250;-76
2022/04/01 00:26:46;;;;;;;14.27;12.57;;;;;;;1.66;100.00;99258.22;694828;28;1545;-76
2022/04/01 00:27:07;;;;;;;14.32;12.80;;;;;;;1.65;100.00;99257.38;697942;28;1244;-76
2022/04/01 00:27:27;;;;;;;15.00;13.23;;;;;;;1.64;100.00;99257.38;692644;28;1909;-76
2022/04/01 00:27:48;;;;;;;15.38;13.07;;;;;;;1.64;100.00;99249.66;692258;28;1593;-76
2022/04/01 00:28:08;;;;;;;15.57;13.30;;;;;;;1.63;100.00;99256.50;691825;28;4336;-76
2022/04/01 00:28:29;;;;;;;16.33;14.02;;;;;;;1.62;100.00;99252.22;694693;28;1623;-77
2022/04/01 00:28:49;;;;;;;15.82;13.60;;;;;;;1.65;100.00;99254.81;694352;28;1990;-76
2022/04/01 00:29:16;;;;;;;15.50;13.23;;;;;;;1.63;100.00;99253.91;689932;28;1618;-75
2022/04/01 00:29:36;;;;;;;15.38;13.60;;;;;;;1.66;100.00;99251.38;692815;28;1447;-76
2022/04/01 00:29:57;;;;;;;16.37;13.83;;;;;;;1.64;100.00;99247.91;692567;28;1377;-76
2022/04/01 00:30:18;;;;;;;16.30;14.38;;;;;;;1.61;100.00;99255.63;693714;28;1473;-76
2022/04/01 00:30:41;;;;;;;15.85;14.15;;;;;;;1.60;100.00;99258.19;692572;28;2085;-76
2022/04/01 00:31:02;;;;;;;15.32;13.50;;;;;;;1.62;100.00;99257.38;689778;28;4337;-76
2022/04/01 00:31:22;;;;;;;15.50;13.87;;;;;;;1.59;100.00;99252.16;690713;28;1457;-76
2022/04/01 00:31:49;;;;;;;15.20;13.52;;;;;;;1.60;100.00;99251.31;689304;28;1616;-76
2022/04/01 00:32:09;;;;;;;15.95;13.70;;;;;;;1.65;100.00;99252.22;696021;28;1925;-76
2022/04/01 00:32:30;;;;;;;15.83;13.93;;;;;;;1.69;100.00;99253.13;694736;28;1275;-76
2022/04/01 00:32:51;;;;;;;15.82;13.82;;;;;;;1.67;100.00;99254.81;694530;28;1506;-76
2022/04/01 00:33:14;;;;;;;14.90;13.27;;;;;;;1.67;100.00;99253.09;694490;28;1597;-77
2022/04/01 00:33:34;;;;;;;14.77;12.63;;;;;;;1.82;100.00;99256.66;690678;28;1805;-76
2022/04/01 00:34:15;;;;;;;14.32;12.80;;;;;;;1.69;100.00;99260.84;689131;28;2248;-75
2022/04/01 00:34:36;;;;;;;14.60;12.95;;;;;;;1.75;100.00;99260.03;690178;28;4921;-76
2022/04/01 00:34:57;;;;;;;14.75;13.05;;;;;;;1.70;100.00;99260.00;690434;28;1773;-76
2022/04/01 00:35:17;;;;;;;15.77;14.10;;;;;;;1.64;100.00;99259.94;690141;28;868;-76
2022/04/01 00:35:38;;;;;;;15.55;13.95;;;;;;;1.59;100.00;99266.75;690338;28;1368;-76
2022/04/01 00:35:59;;;;;;;15.07;13.48;;;;;;;1.57;100.00;99253.88;691964;28;1346;-76
2022/04/01 00:36:19;;;;;;;15.73;13.80;;;;;;;1.54;100.00;99253.84;690582;28;1092;-75
2022/04/01 00:36:40;;;;;;;16.08;14.35;;;;;;;1.49;100.00;99260.66;690780;28;1116;-76
2022/04/01 00:37:03;;;;;;;16.17;14.48;;;;;;;1.48;100.00;99261.50;688994;28;5495;-76
2022/04/01 00:37:23;;;;;;;16.60;14.38;;;;;;;1.45;100.00;99259.75;690122;28;1679;-76
2022/04/01 00:37:44;;;;;;;16.17;13.95;;;;;;;1.45;100.00;99257.19;691774;28;1243;-76
2022/04/01 00:38:04;;;;;;;16.10;14.07;;;;;;;1.44;100.00;99258.06;691119;28;1626;-75
2022/04/01 00:38:25;;;;;;;16.20;14.10;;;;;;;1.43;100.00;99260.63;690009;28;1074;-76
2022/04/01 00:38:45;;;;;;;15.93;14.10;;;;;;;1.43;100.00;99268.34;689638;28;1278;-77
2022/04/01 00:39:06;;;;;;;15.40;13.80;;;;;;;1.42;100.00;99258.88;690178;28;1158;-76
2022/04/01 00:39:32;;;;;;;15.68;13.90;;;;;;;1.44;100.00;99264.91;693145;28;1747;-75
2022/04/01 00:39:55;;;;;;;15.80;14.07;;;;;;;1.44;100.00;99259.75;691732;28;1908;-76
2022/04/01 00:40:16;;;;;;;15.32;13.52;;;;;;;1.46;100.00;99256.34;695214;28;4280;-76
2022/04/01 00:40:37;;;;;;;15.93;13.93;;;;;;;1.47;100.00;99258.06;696246;28;1259;-76
2022/04/01 00:40:58;;;;;;;15.65;13.57;;;;;;;1.50;100.00;99257.25;692879;28;1107;-76
2022/04/01 00:41:19;;;;;;;15.80;13.70;;;;;;;1.50;100.00;99259.81;694746;28;1508;-76
2022/04/01 00:41:40;;;;;;;15.40;13.68;;;;;;;1.48;100.00;99252.09;694150;28;1388;-76
2022/04/01 00:42:03;;;;;;;15.70;13.50;;;;;;;1.47;100.00;99252.06;693988;28;1641;-76
2022/04/01 00:42:25;;;;;;;14.88;12.85;;;;;;;1.44;100.00;99264.91;690740;28;1610;-76
2022/04/01 00:42:46;;;;;;;15.43;13.63;;;;;;;1.41;100.00;99258.00;690713;28;1761;-76
2022/04/01 00:43:07;;;;;;;15.27;13.63;;;;;;;1.40;100.00;99258.88;686812;28;4276;-76
2022/04/01 00:43:34;;;;;;;15.70;14.00;;;;;;;1.39;100.00;99254.56;690820;28;1239;-76
2022/04/01 00:44:13;;;;;;;15.18;13.52;;;;;;;1.52;100.00;99258.09;689853;28;1259;-75
2022/04/01 00:44:37;;;;;;;14.68;13.00;;;;;;;1.59;100.00;99264.19;689967;28;1589;-76
2022/04/01 00:44:58;;;;;;;13.90;12.40;;;;;;;1.61;100.00;99252.19;690688;28;1323;-76
2022/04/01 00:45:18;;;;;;;14.48;12.80;;;;;;;1.65;100.00;99261.69;692163;28;1385;-77
2022/04/01 00:45:39;;;;;;;14.77;13.15;;;;;;;1.59;100.00;99257.31;693038;28;1350;-76
2022/04/01 00:46:00;;;;;;;14.93;13.27;;;;;;;1.59;100.00;99259.88;692360;28;4327;-76
2022/04/01 00:46:21;;;;;;;14.85;13.25;;;;;;;1.62;100.00;99253.91;690416;28;1229;-76
2022/04/01 00:46:43;;;;;;;14.40;12.90;;;;;;;1.61;100.00;99255.63;690757;28;1394;-76
2022/04/01 00:47:14;;;;;;;14.55;12.70;;;;;;;1.57;100.00;99258.19;693052;28;1239;-76
2022/04/01 00:47:34;;;;;;;15.25;13.50;;;;;;;1.56;100.00;99254.72;689572;28;1681;-76
2022/04/01 00:48:01;;;;;;;15.33;13.50;;;;;;;1.53;100.00;99255.53;690008;28;1544;-76
2022/04/01 00:48:23;;;;;;;15.25;13.25;;;;;;;1.63;100.00;99265.94;690520;28;1588;-76
2022/04/01 00:48:43;;;;;;;14.43;12.93;;;;;;;1.62;100.00;99252.22;695032;28;1590;-76
2022/04/01 00:49:04;;;;;;;14.85;13.20;;;;;;;1.59;100.00;99262.47;689583;28;4464;-76
2022/04/01 00:49:29;;;;;;;15.17;13.23;;;;;;;1.50;100.00;99258.09;690922;28;1203;-76
2022/04/01 00:49:49;;;;;;;14.05;12.55;;;;;;;1.46;100.00;99265.78;692127;28;1413;-76
2022/04/01 00:50:11;;;;;;;13.80;12.38;;;;;;;1.42;100.00;99264.88;695578;28;1559;-76
2022/04/01 00:50:32;;;;;;;14.02;12.52;;;;;;;1.51;100.00;99258.97;691339;28;1384;-76
2022/04/01 00:50:54;;;;;;;14.95;12.60;;;;;;;1.56;100.00;99262.44;691147;28;1043;-75
2022/04/01 00:51:15;;;;;;;13.85;12.07;;;;;;;1.55;100.00;99254.69;691517;28;1327;-76
2022/04/01 00:51:37;;;;;;;13.93;12.43;;;;;;;1.52;100.00;99261.56;691285;28;1370;-76
2022/04/01 00:52:03;;;;;;;14.35;12.85;;;;;;;1.53;100.00;99263.28;693745;28;4463;-76
2022/04/01 00:52:24;;;;;;;14.18;12.68;;;;;;;1.50;100.00;99257.25;695426;28;1854;-76
2022/04/01 00:52:44;;;;;;;13.90;12.40;;;;;;;1.47;100.00;99262.38;695524;28;1206;-76
2022/04/01 00:53:05;;;;;;;14.43;12.60;;;;;;;1.40;100.00;99261.44;693014;28;1339;-76
2022/04/01 00:53:26;;;;;;;14.10;12.60;;;;;;;1.41;100.00;99260.56;692459;28;875;-76
2022/04/01 00:53:46;;;;;;;14.23;12.73;;;;;;;1.57;100.00;99253.88;689880;28;1408;-76
2022/04/01 00:54:07;;;;;;;13.63;12.00;;;;;;;1.61;100.00;99255.63;689116;28;1053;-76
2022/04/01 00:54:28;;;;;;;14.07;12.27;;;;;;;1.64;100.00;99262.53;690632;28;1368;-77
2022/04/01 00:54:50;;;;;;;13.65;11.98;;;;;;;1.68;100.00;99261.69;689076;28;1122;-76
2022/04/01 00:55:11;;;;;;;13.70;12.20;;;;;;;1.63;100.00;99253.91;692368;28;4461;-76
2022/04/01 00:55:32;;;;;;;14.10;12.60;;;;;;;1.57;100.00;99269.31;692800;28;938;-76
2022/04/01 00:55:52;;;;;;;13.50;11.98;;;;;;;1.52;100.00;99256.41;692628;28;1211;-76
2022/04/01 00:56:13;;;;;;;13.70;12.30;;;;;;;1.51;100.00;99267.56;691977;28;1530;-76
2022/04/01 00:56:35;;;;;;;13.70;12.20;;;;;;;1.48;100.00;99262.38;691782;28;965;-76
2022/04/01 00:56:55;;;;;;;14.50;12.82;;;;;;;1.45;100.00;99270.06;693273;28;1455;-76
2022/04/01 00:57:18;;;;;;;14.20;12.67;;;;;;;1.41;100.00;99259.72;693484;28;1167;-76
2022/04/01 00:57:39;;;;;;;14.45;12.73;;;;;;;1.41;100.00;99262.31;688607;28;1402;-76
2022/04/01 00:57:59;;;;;;;13.70;12.15;;;;;;;1.42;100.00;99259.75;692700;28;4317;-76
2022/04/01 00:58:20;;;;;;;13.10;11.45;;;;;;;1.56;100.00;99254.72;691331;28;1390;-76
2022/04/01 00:58:42;;;;;;;13.25;11.10;;;;;;;1.53;100.00;99273.56;695042;27;1862;-76
2022/04/01 00:59:04;;;;;;;13.20;11.80;;;;;;;1.49;100.00;99271.81;698371;28;1848;-76
2022/04/01 00:59:25;;;;;;;13.00;11.60;;;;;;;1.49;100.00;99264.09;698408;28;1306;-76
2022/04/01 00:59:47;;;;;;;13.27;11.87;;;;;;;1.45;100.00;99266.63;696349;28;1376;-76
2022/04/01 01:00:09;;;;;;;13.07;11.68;;;;;;;1.42;100.00;99264.88;697132;28;1547;-76
2022/04/01 01:00:29;;;;;;;13.63;12.10;;;;;;;1.39;100.00;99264.00;696483;28;1797;-76
2022/04/01 01:00:50;;;;;;;13.18;11.73;;;;;;;1.47;100.00;99265.81;691906;28;1857;-76
2022/04/01 01:01:11;;;;;;;12.82;11.50;;;;;;;1.59;100.00;99266.75;691772;28;4247;-76
2022/04/01 01:01:33;;;;;;;13.63;12.10;;;;;;;1.59;100.00;99262.47;691183;28;1401;-76
2022/04/01 01:01:55;;;;;;;12.88;11.50;;;;;;;1.63;100.00;99266.78;689099;28;1392;-76
2022/04/01 01:02:17;;;;;;;12.45;11.15;;;;;;;1.58;100.00;99265.91;690420;28;1400;-76
2022/04/01 01:02:39;;;;;;;13.38;11.68;;;;;;;1.52;100.00;99266.72;690949;28;1947;-76
2022/04/01 01:02:59;;;;;;;13.32;11.88;;;;;;;1.52;100.00;99268.41;693613;28;1310;-76
2022/04/01 01:03:20;;;;;;;13.48;12.07;;;;;;;1.49;100.00;99271.81;696313;28;1294;-76
2022/04/01 01:03:41;;;;;;;12.88;11.45;;;;;;;1.51;100.00;99277.88;693838;28;1587;-77
2022/04/01 01:04:06;;;;;;;13.43;11.90;;;;;;;1.57;100.00;99269.31;692538;28;4302;-75
2022/04/01 01:04:27;;;;;;;13.20;11.65;;;;;;;1.54;100.00;99269.31;692524;28;1921;-76
2022/04/01 01:04:47;;;;;;;13.27;11.60;;;;;;;1.57;100.00;99264.19;690781;28;1707;-76
2022/04/01 01:05:10;;;;;;;12.90;11.45;;;;;;;1.53;100.00;99281.31;690209;28;1371;-76
2022/04/01 01:05:31;;;;;;;12.93;11.55;;;;;;;1.49;100.00;99263.25;692690;28;1192;-76
2022/04/01 01:05:52;;;;;;;13.13;11.60;;;;;;;1.48;100.00;99271.81;695648;28;1526;-76
2022/04/01 01:06:14;;;;;;;13.23;11.83;;;;;;;1.51;100.00;99262.41;696800;28;1349;-76
2022/04/01 01:06:37;;;;;;;13.45;12.05;;;;;;;1.52;100.00;99271.00;693784;28;1643;-76
2022/04/01 01:06:59;;;;;;;13.15;11.75;;;;;;;1.50;100.00;99280.44;694450;28;1531;-76
2022/04/01 01:07:19;;;;;;;13.40;12.00;;;;;;;1.51;100.00;99277.00;693732;28;4745;-76
2022/04/01 01:07:43;;;;;;;13.27;11.88;;;;;;;1.47;100.00;99258.06;692091;28;1522;-76
2022/04/01 01:08:06;;;;;;;12.70;11.30;;;;;;;1.61;100.00;99265.09;693406;28;905;-76
2022/04/01 01:08:26;;;;;;;12.77;11.40;;;;;;;1.58;100.00;99270.19;693290;28;1581;-76
2022/04/01 01:08:48;;;;;;;13.57;11.97;;;;;;;1.52;100.00;99268.41;695060;28;1364;-76
2022/04/01 01:09:09;;;;;;;14.32;12.20;;;;;;;1.48;100.00;99272.69;696026;28;1315;-76
2022/04/01 01:09:30;;;;;;;13.25;11.85;;;;;;;1.46;100.00;99276.09;695712;28;1703;-76
2022/04/01 01:09:51;;;;;;;13.48;11.82;;;;;;;1.51;100.00;99277.00;693806;28;1619;-76
2022/04/01 01:10:13;;;;;;;13.27;11.60;;;;;;;1.50;100.00;99277.84;696301;28;4513;-76
2022/04/01 01:10:34;;;;;;;13.43;12.02;;;;;;;1.47;100.00;99270.09;697603;28;1721;-76
2022/04/01 01:10:56;;;;;;;13.32;11.82;;;;;;;1.49;100.00;99271.81;690642;28;1300;-76
2022/04/01 01:11:16;;;;;;;13.68;11.90;;;;;;;1.55;100.00;99277.88;687980;28;1366;-76
2022/04/01 01:11:37;;;;;;;13.70;12.00;;;;;;;1.58;100.00;99265.91;689530;28;1450;-76
2022/04/01 01:11:58;;;;;;;13.93;12.43;;;;;;;1.63;100.00;99271.09;688368;28;1456;-76
2022/04/01 01:12:19;;;;;;;13.40;11.95;;;;;;;1.60;100.00;99276.22;695873;28;1396;-76
2022/04/01 01:12:43;;;;;;;13.25;11.85;;;;;;;1.56;100.00;99272.75;697076;28;976;-76
2022/04/01 01:13:03;;;;;;;13.20;11.77;;;;;;;1.52;100.00;99269.28;695935;28;4411;-76
2022/04/01 01:13:24;;;;;;;13.88;12.38;;;;;;;1.44;100.00;99273.50;696011;28;1554;-76
2022/04/01 01:13:45;;;;;;;13.53;11.97;;;;;;;1.45;100.00;99274.38;694696;28;1487;-76
2022/04/01 01:14:08;;;;;;;12.95;11.55;;;;;;;1.45;100.00;99270.06;690717;28;1274;-76
2022/04/01 01:14:31;;;;;;;13.10;11.70;;;;;;;1.57;100.00;99271.91;693812;28;1200;-76
2022/04/01 01:14:53;;;;;;;12.88;11.48;;;;;;;1.51;100.00;99284.75;695489;28;1271;-76
2022/04/01 01:15:18;;;;;;;12.30;11.00;;;;;;;1.53;100.00;99280.44;698466;28;1503;-77
2022/04/01 01:15:39;;;;;;;12.40;10.98;;;;;;;1.52;100.00;99271.00;694425;28;1535;-76
2022/04/01 01:16:00;;;;;;;12.60;10.67;;;;;;;1.54;100.00;99274.47;698557;28;4536;-76
2022/04/01 01:16:20;;;;;;;12.30;10.87;;;;;;;1.61;100.00;99281.38;698757;28;1174;-75
2022/04/01 01:16:44;;;;;;;12.30;11.00;;;;;;;1.57;100.00;99274.47;698819;28;1094;-76
2022/04/01 01:17:07;;;;;;;12.52;11.05;;;;;;;1.55;100.00;99280.47;696203;28;1772;-76
2022/04/01 01:17:27;;;;;;;13.15;11.75;;;;;;;1.50;100.00;99273.56;696923;28;1550;-76
2022/04/01 01:17:51;;;;;;;13.27;11.87;;;;;;;1.49;100.00;99282.13;696103;28;1776;-76
2022/04/01 01:18:16;;;;;;;13.73;12.05;;;;;;;1.51;100.00;99285.59;696957;28;1196;-76
2022/04/01 01:18:36;;;;;;;13.43;11.75;;;;;;;1.48;100.00;99282.09;698573;28;852;-76
2022/04/01 01:19:00;;;;;;;13.55;12.00;;;;;;;1.46;100.00;99281.25;698833;28;1423;-76
2022/04/01 01:19:21;;;;;;;13.38;11.98;;;;;;;1.43;100.00;99276.94;697883;28;6234;-76
2022/04/01 01:19:45;;;;;;;13.25;11.85;;;;;;;1.40;100.00;99281.16;693590;28;1409;-76
2022/04/01 01:20:14;;;;;;;12.98;11.55;;;;;;;1.42;100.00;99279.50;694755;28;1444;-76
2022/04/01 01:20:35;;;;;;;14.00;12.10;;;;;;;1.40;100.00;99270.88;695871;28;1434;-76
2022/04/01 01:20:56;;;;;;;13.40;12.00;;;;;;;1.39;100.00;99279.47;692771;28;953;-76
2022/04/01 01:21:16;;;;;;;13.77;12.27;;;;;;;1.32;100.00;99278.53;690255;28;1564;-76
2022/04/01 01:21:38;;;;;;;14.25;12.63;;;;;;;1.25;100.00;99279.31;690117;28;1383;-76
2022/04/01 01:21:59;;;;;;;14.07;12.23;;;;;;;1.21;100.00;99280.13;691188;28;4303;-76
2022/04/01 01:22:20;;;;;;;14.27;12.07;;;;;;;1.31;100.00;99284.53;689448;28;1448;-76
2022/04/01 01:22:44;;;;;;;13.27;11.85;;;;;;;1.38;100.00;99276.00;692540;28;1352;-76
2022/04/01 01:23:06;;;;;;;13.25;11.77;;;;;;;1.34;100.00;99280.28;695592;28;1666;-76
2022/04/01 01:23:30;;;;;;;13.95;11.98;;;;;;;1.33;100.00;99275.97;696502;28;1350;-76
2022/04/01 01:23:50;;;;;;;14.38;12.27;;;;;;;1.41;100.00;99282.91;693625;28;1428;-76
2022/04/01 01:24:16;;;;;;;13.97;12.10;;;;;;;1.40;100.00;99279.47;685978;28;1171;-76
2022/04/01 01:24:39;;;;;;;14.07;12.00;;;;;;;1.39;100.00;99271.75;689968;28;1442;-77
2022/04/01 01:25:00;;;;;;;13.57;11.57;;;;;;;1.55;100.00;99273.59;686572;28;4343;-76
2022/04/01 01:25:21;;;;;;;13.63;12.05;;;;;;;1.52;100.00;99276.13;693867;28;1266;-76
2022/04/01 01:25:42;;;;;;;13.27;11.88;;;;;;;1.48;100.00;99275.25;690372;28;1329;-76
2022/04/01 01:26:03;;;;;;;13.43;11.98;;;;;;;1.47;100.00;99280.41;690022;28;959;-76
2022/04/01 01:26:23;;;;;;;14.13;12.30;;;;;;;1.50;100.00;99278.69;690904;28;1180;-76
2022/04/01 01:26:50;;;;;;;13.35;11.88;;;;;;;1.50;100.00;99285.59;687426;28;1270;-76
2022/04/01 01:27:13;;;;;;;14.15;12.05;;;;;;;1.43;100.00;99282.06;688000;28;1918;-76
2022/04/01 01:27:33;;;;;;;14.02;12.32;;;;;;;1.48;100.00;99274.38;688565;28;848;-76
2022/04/01 01:27:54;;;;;;;14.17;12.67;;;;;;;1.46;100.00;99289.81;689248;28;1328;-76
2022/04/01 01:28:17;;;;;;;14.30;12.40;;;;;;;1.39;100.00;99276.88;692500;28;4606;-76
2022/04/01 01:28:37;;;;;;;13.73;12.10;;;;;;;1.33;100.00;99278.53;697289;28;1464;-75
2022/04/01 01:28:59;;;;;;;15.33;12.07;;;;;;;1.31;100.00;99281.94;696742;28;1227;-76
2022/04/01 01:29:31;;;;;;;14.27;12.18;;;;;;;1.30;100.00;99280.22;694781;28;1281;-77
2022/04/01 01:29:51;;;;;;;13.93;12.30;;;;;;;1.24;100.00;99275.88;692954;28;1464;-76
2022/04/01 01:30:12;;;;;;;14.23;12.43;;;;;;;1.24;100.00;99283.59;690431;28;1632;-76
2022/04/01 01:30:32;;;;;;;13.38;11.95;;;;;;;1.22;100.00;99281.84;693985;28;1652;-76
2022/04/01 01:30:53;;;;;;;14.52;12.18;;;;;;;1.24;100.00;99283.59;698219;28;1160;-76
2022/04/01 01:31:13;;;;;;;13.73;11.87;;;;;;;1.29;100.00;99279.34;698612;28;4354;-76
2022/04/01 01:31:34;;;;;;;13.70;12.20;;;;;;;1.33;100.00;99283.69;699419;28;1316;-76
2022/04/01 01:31:56;;;;;;;13.25;11.82;;;;;;;1.29;100.00;99284.50;695345;28;1346;-76
2022/04/01 01:32:19;;;;;;;13.60;12.05;;;;;;;1.21;100.00;99275.84;696504;28;1356;-76
2022/04/01 01:32:40;;;;;;;12.90;11.50;;;;;;;1.26;100.00;99281.91;696340;28;1755;-75
2022/04/01 01:33:01;;;;;;;12.85;11.45;;;;;;;1.21;100.00;99290.44;695889;28;1340;-76
2022/04/01 01:33:25;;;;;;;13.10;11.70;;;;;;;1.22;100.00;99280.16;695458;28;1378;-76
2022/04/01 01:33:45;;;;;;;13.55;11.82;;;;;;;1.20;100.00;99289.56;698149;28;1250;-76
2022/04/01 01:34:09;;;;;;;14.23;11.80;;;;;;;1.34;100.00;99284.53;695931;28;4336;-76
2022/04/01 01:34:33;;;;;;;13.50;11.45;;;;;;;1.42;100.00;99276.91;697298;28;820;-75
2022/04/01 01:34:54;;;;;;;13.82;12.00;;;;;;;1.38;100.00;99277.72;693227;28;993;-76
2022/04/01 01:35:16;;;;;;;14.18;12.07;;;;;;;1.35;100.00;99279.41;695192;28;1199;-76
2022/04/01 01:35:37;;;;;;;14.52;12.35;;;;;;;1.31;100.00;99277.66;694085;28;820;-76
2022/04/01 01:35:57;;;;;;;15.27;13.07;;;;;;;1.28;100.00;99276.78;696963;28;1302;-76
2022/04/01 01:36:18;;;;;;;14.43;12.63;;;;;;;1.27;100.00;99277.63;696205;28;1214;-76
2022/04/01 01:36:39;;;;;;;14.03;12.37;;;;;;;1.26;100.00;99283.59;698266;28;1274;-76
2022/04/01 01:37:02;;;;;;;13.88;12.02;;;;;;;1.29;100.00;99278.50;697171;28;4341;-76
2022/04/01 01:37:23;;;;;;;14.25;12.20;;;;;;;1.38;100.00;99275.16;693209;28;1279;-76
2022/04/01 01:37:43;;;;;;;13.98;12.18;;;;;;;1.36;100.00;99275.16;696051;28;1369;-76
2022/04/01 01:38:05;;;;;;;14.33;12.73;;;;;;;1.34;100.00;99279.41;693850;28;1086;-76
2022/04/01 01:38:25;;;;;;;14.23;12.68;;;;;;;1.30;100.00;99275.94;692720;28;1654;-76
2022/04/01 01:38:46;;;;;;;14.70;12.90;;;;;;;1.30;100.00;99286.25;694896;28;1411;-76
2022/04/01 01:39:06;;;;;;;14.93;13.10;;;;;;;1.28;100.00;99276.78;694223;28;5023;-76
2022/04/01 01:39:27;;;;;;;14.50;12.68;;;;;;;1.21;100.00;99278.41;690766;28;1172;-76
2022/04/01 01:39:48;;;;;;;14.60;12.40;;;;;;;1.23;100.00;99278.44;698143;28;1393;-75
2022/04/01 01:40:10;;;;;;;14.88;12.45;;;;;;;1.25;100.00;99281.91;697061;28;5160;-76
2022/04/01 01:40:31;;;;;;;14.10;12.32;;;;;;;1.23;100.00;99274.13;698180;28;1802;-76
2022/04/01 01:40:53;;;;;;;15.30;13.00;;;;;;;1.23;100.00;99275.84;697034;28;990;-76
2022/04/01 01:41:14;;;;;;;14.80;12.93;;;;;;;1.21;100.00;99283.56;692800;28;1193;-76
2022/04/01 01:41:35;;;;;;;15.40;13.27;;;;;;;1.19;100.00;99278.41;692860;28;1996;-76
2022/04/01 01:41:56;;;;;;;15.23;12.70;;;;;;;1.25;100.00;99276.75;691432;28;1398;-76